Time;durP1;ratioP1;P1;durP2;ratioP2;P2;SDS_P1;SDS_P2;PMS_P1;PMS_P2;Temp;Humidity;BMP_temperature;BMP_pressure;BME280_temperature;BME280_humidity;BME280_pressure;Samples;Min_cycle;Max_cycle;Signal;HPM_P1;HPM_P2
2024/01/30 00:01:59;;;;;;;17.15;13.43;;;5.10;1.00;;;2.79;100.00;101886.34;4974711;28;20044;-79
2024/01/30 00:04:27;;;;;;;18.90;13.48;;;4.50;1.00;;;2.52;100.00;101835.25;4974549;28;20494;-79
2024/01/30 00:06:54;;;;;;;16.40;12.38;;;4.50;1.00;;;2.61;100.00;101851.13;4990248;28;20050;-80
2024/01/30 00:09:21;;;;;;;15.05;9.48;;;4.60;1.00;;;2.68;100.00;101860.91;4973831;28;20092;-79
2024/01/30 00:11:48;;;;;;;11.23;8.98;;;4.50;1.00;;;2.01;100.00;101790.28;4970727;28;20097;-79
2024/01/30 00:14:15;;;;;;;12.60;9.27;;;5.30;1.00;;;2.97;100.00;101961.47;4984183;28;20052;-80
2024/01/30 00:16:42;;;;;;;9.75;8.75;;;4.40;1.00;;;2.96;100.00;101933.72;4974073;28;20056;-79
2024/01/30 00:19:09;;;;;;;12.20;8.75;;;4.40;1.00;;;2.83;100.00;101920.31;4989541;28;20440;-79
2024/01/30 00:21:36;;;;;;;10.82;8.80;;;4.40;1.00;;;2.88;100.00;101935.16;4957578;28;20064;-79
2024/01/30 00:24:04;;;;;;;10.57;8.07;;;4.40;1.00;;;2.97;100.00;101935.47;4970127;28;20055;-80
2024/01/30 00:26:31;;;;;;;11.27;9.15;;;4.50;99.90;;;2.93;100.00;101925.81;4988454;28;20057;-79
2024/01/30 00:28:58;;;;;;;11.50;9.25;;;4.40;99.90;;;2.69;100.00;101885.19;4948805;28;20571;-78
2024/01/30 00:31:25;;;;;;;11.07;9.02;;;4.50;99.90;;;2.69;100.00;101893.88;4963593;28;20591;-79
2024/01/30 00:33:53;;;;;;;10.80;8.52;;;4.40;99.90;;;2.49;100.00;101867.22;4982342;28;20058;-80
2024/01/30 00:36:20;;;;;;;8.98;8.05;;;4.40;99.90;;;2.68;100.00;101896.41;4972877;28;20068;-80
2024/01/30 00:38:50;;;;;;;13.73;9.40;;;4.40;99.90;;;2.80;100.00;101922.81;4979338;28;20382;-79
2024/01/30 00:41:20;;;;;;;10.60;8.50;;;4.30;91.10;;;2.77;100.00;101932.22;4986371;28;20528;-79
2024/01/30 00:43:47;;;;;;;9.50;7.43;;;4.40;99.90;;;2.44;100.00;101879.19;4981310;28;20138;-80
2024/01/30 00:46:14;;;;;;;11.30;8.57;;;4.30;73.40;;;2.63;100.00;101917.03;4973454;28;20050;-79
2024/01/30 00:48:41;;;;;;;13.95;10.32;;;4.30;99.90;;;2.80;100.00;101950.50;4969777;28;20496;-80
2024/01/30 00:51:09;;;;;;;10.70;8.77;;;4.20;99.90;;;2.62;100.00;101927.41;4953199;28;20054;-79
2024/01/30 00:53:36;;;;;;;11.07;9.30;;;4.20;1.00;;;2.61;100.00;101943.81;4957011;28;20054;-80
2024/01/30 00:56:04;;;;;;;13.57;9.57;;;4.20;99.90;;;1.56;100.00;101755.00;4981693;28;20539;-80
2024/01/30 00:58:31;;;;;;;10.68;9.48;;;4.10;1.00;;;2.01;100.00;101856.91;4972648;28;20456;-78
2024/01/30 01:00:58;;;;;;;11.10;9.93;;;4.00;1.00;;;1.86;100.00;101846.84;4986429;28;20055;-79
2024/01/30 01:03:26;;;;;;;11.50;9.13;;;4.00;1.00;;;2.07;100.00;101875.28;4954001;28;20544;-80
2024/01/30 01:05:53;;;;;;;14.38;9.30;;;4.00;17.50;;;2.32;100.00;101908.19;4983391;28;20074;-79
2024/01/30 01:08:20;;;;;;;14.55;10.15;;;4.00;1.00;;;2.34;100.00;101909.16;4989349;28;20085;-79
2024/01/30 01:10:47;;;;;;;13.98;10.18;;;4.00;1.00;;;2.32;100.00;101904.72;4972054;28;20057;-80
2024/01/30 01:13:14;;;;;;;11.95;9.80;;;4.00;1.00;;;2.57;100.00;101947.13;4957024;28;20634;-81
2024/01/30 01:15:41;;;;;;;11.85;8.77;;;4.00;47.70;;;2.41;100.00;101928.41;4951981;28;20050;-79
2024/01/30 01:18:08;;;;;;;14.73;9.98;;;4.10;1.00;;;2.45;100.00;101914.72;4983874;28;20133;-80
2024/01/30 01:20:35;;;;;;;10.25;8.70;;;4.10;1.00;;;2.58;100.00;101935.94;4988238;28;20046;-79
2024/01/30 01:23:02;;;;;;;14.02;9.70;;;4.10;1.00;;;2.06;100.00;101845.84;4970053;28;20078;-80
2024/01/30 01:25:29;;;;;;;14.57;10.10;;;4.10;1.00;;;2.23;100.00;101879.31;4986090;28;20047;-81
2024/01/30 01:27:57;;;;;;;12.68;9.75;;;4.10;1.00;;;2.15;100.00;101871.25;4948536;28;20086;-81
2024/01/30 01:30:25;;;;;;;12.30;10.32;;;4.00;1.00;;;2.46;100.00;101910.38;4969993;28;20077;-81
2024/01/30 01:32:56;;;;;;;11.05;8.75;;;4.00;1.00;;;1.97;100.00;101829.94;4973695;28;20489;-81
2024/01/30 01:35:24;;;;;;;13.82;9.95;;;4.40;1.00;;;2.42;100.00;101904.22;4965539;28;20054;-81
2024/01/30 01:37:54;;;;;;;11.60;8.85;;;4.50;1.00;;;2.65;100.00;101951.78;4986865;28;20385;-79
2024/01/30 01:40:27;;;;;;;11.90;9.20;;;4.10;1.00;;;2.67;100.00;101944.03;4957659;28;20046;-81
2024/01/30 01:42:55;;;;;;;12.32;9.23;;;4.10;1.00;;;2.52;100.00;101923.63;4997190;28;20046;-80
2024/01/30 01:45:22;;;;;;;12.35;9.45;;;4.00;1.00;;;2.30;100.00;101880.41;4961603;28;20070;-81
2024/01/30 01:47:53;;;;;;;11.52;8.88;;;4.00;1.00;;;2.50;100.00;101927.88;4959541;28;20048;-80
2024/01/30 01:50:22;;;;;;;14.68;9.18;;;2.60;99.90;;;2.37;100.00;101906.66;4956841;28;20401;-78
2024/01/30 01:52:51;;;;;;;14.13;9.83;;;4.00;1.00;;;2.22;100.00;101867.16;4975967;28;20046;-80
2024/01/30 01:55:26;;;;;;;12.23;9.68;;;4.00;99.90;;;1.22;100.00;101714.91;4959134;28;20538;-80
2024/01/30 01:57:54;;;;;;;14.40;10.52;;;4.00;1.00;;;2.18;100.00;101873.97;4976282;28;20038;-80
2024/01/30 02:00:21;;;;;;;12.38;9.70;;;3.90;1.00;;;2.41;100.00;101913.72;4974418;28;20042;-81
2024/01/30 02:02:50;;;;;;;12.90;10.30;;;4.00;1.00;;;2.19;100.00;101867.94;4975493;28;20077;-80
2024/01/30 02:05:18;;;;;;;11.68;9.50;;;3.90;99.90;;;2.38;100.00;101902.31;4990859;28;20570;-80
2024/01/30 02:07:45;;;;;;;15.30;11.02;;;3.90;99.90;;;2.14;100.00;101866.91;4959435;28;20038;-78
2024/01/30 02:10:12;;;;;;;12.65;10.23;;;3.90;1.00;;;2.45;100.00;101937.19;4990600;28;20051;-79
2024/01/30 02:12:40;;;;;;;11.63;10.00;;;4.30;1.00;;;2.22;100.00;101900.94;4971711;28;20086;-79
2024/01/30 02:15:07;;;;;;;15.10;11.18;;;3.80;1.00;;;2.33;100.00;101927.28;4969876;28;20097;-80
2024/01/30 02:17:35;;;;;;;13.30;10.15;;;3.70;1.00;;;2.28;100.00;101918.44;4992495;28;20046;-79
2024/01/30 02:20:03;;;;;;;15.57;11.50;;;3.70;4.60;;;2.17;100.00;101898.16;4974619;28;20054;-80
2024/01/30 02:22:34;;;;;;;14.60;10.38;;;3.80;1.50;;;2.01;100.00;101881.16;4992078;28;20046;-79
2024/01/30 02:25:01;;;;;;;12.80;9.93;;;3.70;1.00;;;2.14;100.00;101918.84;4976036;28;20759;-79
2024/01/30 02:27:28;;;;;;;14.88;10.68;;;3.70;99.90;;;1.92;100.00;101865.25;4958114;28;20137;-78
2024/01/30 02:29:55;;;;;;;16.25;10.50;;;3.70;99.90;;;2.22;100.00;101919.97;4990001;28;20048;-79
2024/01/30 02:32:22;;;;;;;12.23;9.50;;;3.70;1.00;;;1.68;100.00;101850.56;4988092;28;20043;-81
2024/01/30 02:34:49;;;;;;;11.70;9.43;;;3.70;1.00;;;2.02;100.00;101898.50;4960176;28;20481;-80
2024/01/30 02:37:17;;;;;;;13.40;10.75;;;3.70;1.00;;;2.19;100.00;101926.81;4992300;28;20101;-79
2024/01/30 02:39:44;;;;;;;12.23;10.32;;;3.60;1.00;;;2.17;100.00;101929.31;4967718;28;20060;-80
2024/01/30 02:42:14;;;;;;;12.75;10.20;;;3.70;1.00;;;2.06;100.00;101900.38;4956262;28;20142;-79
2024/01/30 02:44:41;;;;;;;;;;;3.60;1.00;;;2.16;100.00;101937.94;4966641;28;20042;-79
2024/01/30 02:47:08;;;;;;;13.18;9.10;;;3.60;99.90;;;1.89;100.00;101894.56;4974898;28;20650;-78
2024/01/30 02:49:35;;;;;;;11.48;9.15;;;3.60;1.00;;;1.73;100.00;101867.19;4973660;28;20043;-79
2024/01/30 02:52:03;;;;;;;11.98;9.75;;;3.50;1.00;;;1.03;100.00;101754.81;4958417;28;20050;-79
2024/01/30 02:54:30;;;;;;;12.25;10.60;;;3.50;1.00;;;1.97;100.00;101923.41;4958130;28;20046;-79
2024/01/30 02:56:57;;;;;;;14.48;11.02;;;3.60;1.00;;;1.94;100.00;101916.38;4958556;28;20506;-80
2024/01/30 02:59:24;;;;;;;15.50;11.43;;;3.50;99.90;;;1.98;100.00;101932.97;4990020;28;20527;-80
2024/01/30 03:01:51;;;;;;;12.55;10.65;;;3.50;44.10;;;1.76;100.00;101895.84;4971109;28;20050;-80
2024/01/30 03:04:19;;;;;;;14.98;11.38;;;3.50;15.00;;;1.84;100.00;101898.72;4990185;28;20054;-80
2024/01/30 03:06:49;;;;;;;17.60;11.27;;;3.40;63.30;;;1.67;100.00;101883.41;4990869;28;20485;-79
2024/01/30 03:09:17;;;;;;;;;;;3.40;1.00;;;1.82;100.00;101910.78;4974674;28;20046;-80
2024/01/30 03:11:44;;;;;;;17.45;13.05;;;3.40;64.00;;;1.16;100.00;101828.72;4972697;28;19926;-80
2024/01/30 03:14:14;;;;;;;15.55;11.35;;;3.40;99.90;;;1.80;100.00;101918.47;4970888;28;20081;-80
2024/01/30 03:16:41;;;;;;;13.55;11.35;;;3.40;99.90;;;1.87;100.00;101922.19;4974688;28;20443;-81
2024/01/30 03:19:09;;;;;;;15.55;11.27;;;3.40;99.90;;;1.41;100.00;101840.94;4973974;28;20417;-78
2024/01/30 03:21:36;;;;;;;16.27;11.48;;;3.40;99.90;;;1.78;100.00;101904.56;4990712;28;20109;-79
2024/01/30 03:24:03;;;;;;;14.07;10.07;;;3.30;75.80;;;1.54;100.00;101858.72;4985266;28;20045;-80
2024/01/30 03:26:30;;;;;;;11.80;10.57;;;3.40;1.00;;;1.72;100.00;101893.06;4990213;28;20050;-78
2024/01/30 03:28:57;;;;;;;16.13;10.13;;;3.40;1.00;;;1.39;100.00;101863.31;4974020;28;20239;-79
2024/01/30 03:31:24;;;;;;;11.10;9.90;;;3.30;99.90;;;1.87;100.00;101936.88;4958527;28;20042;-79
2024/01/30 03:33:52;;;;;;;15.18;10.02;;;3.30;99.90;;;1.66;100.00;101911.88;4974393;28;20115;-80
2024/01/30 03:36:19;;;;;;;14.55;10.20;;;3.30;99.90;;;1.25;100.00;101839.47;4990268;28;20054;-78
2024/01/30 03:38:46;;;;;;;12.50;10.00;;;3.30;99.90;;;1.55;100.00;101875.16;4970082;28;20062;-78
2024/01/30 03:41:13;;;;;;;15.13;11.07;;;3.30;99.90;;;1.34;100.00;101849.31;4990276;28;20052;-80
2024/01/30 03:43:40;;;;;;;13.10;10.57;;;3.20;99.90;;;1.68;100.00;101902.44;4994713;28;20822;-79
2024/01/30 03:46:08;;;;;;;12.50;10.27;;;3.30;99.90;;;1.64;100.00;101896.28;4989504;28;20400;-79
2024/01/30 03:48:35;;;;;;;13.43;10.52;;;3.30;99.90;;;1.31;100.00;101844.88;4979156;28;20567;-79
2024/01/30 03:51:02;;;;;;;12.25;9.65;;;3.30;99.90;;;1.11;100.00;101807.84;4989661;28;20053;-79
2024/01/30 03:53:29;;;;;;;14.98;10.80;;;3.60;99.90;;;1.30;100.00;101853.47;4972428;28;20455;-79
2024/01/30 03:55:59;;;;;;;14.38;10.70;;;3.10;99.90;;;1.72;100.00;101926.81;4974009;28;20089;-79
2024/01/30 03:58:26;;;;;;;13.52;10.52;;;3.20;99.90;;;0.62;100.00;101749.81;4956861;28;20514;-79
2024/01/30 04:00:53;;;;;;;12.38;10.10;;;3.30;99.90;;;1.34;100.00;101859.69;4973052;28;20046;-80
2024/01/30 04:03:20;;;;;;;13.68;10.82;;;3.20;99.90;;;1.51;100.00;101886.28;5004903;28;20129;-79
2024/01/30 04:05:47;;;;;;;13.95;11.18;;;3.30;99.90;;;1.55;100.00;101888.16;4973692;28;20042;-79
2024/01/30 04:08:14;;;;;;;15.95;11.07;;;3.20;99.90;;;1.65;100.00;101912.72;4973622;28;20055;-79
2024/01/30 04:10:41;;;;;;;15.30;11.90;;;3.10;99.90;;;1.71;100.00;101925.91;4989497;28;20044;-79
2024/01/30 04:13:08;;;;;;;16.45;12.32;;;3.20;99.90;;;1.60;100.00;101899.56;4974192;28;20116;-79
2024/01/30 04:15:39;;;;;;;14.98;12.88;;;3.20;99.90;;;1.42;100.00;101873.84;4990250;28;20042;-80
2024/01/30 04:18:06;;;;;;;12.90;11.20;;;3.20;99.90;;;1.70;100.00;101926.75;4974040;28;20448;-78
2024/01/30 04:20:34;;;;;;;16.63;12.55;;;3.10;99.90;;;1.57;100.00;101916.75;4979530;28;20074;-80
2024/01/30 04:23:00;;;;;;;17.15;13.75;;;3.10;99.90;;;0.77;100.00;101796.13;4973514;28;20408;-79
2024/01/30 04:25:27;;;;;;;14.23;11.77;;;3.10;99.90;;;0.76;100.00;101771.94;4988713;28;20057;-79
2024/01/30 04:27:55;;;;;;;15.13;10.77;;;4.40;99.90;;;1.62;100.00;101910.88;4979750;28;20482;-80
2024/01/30 04:30:22;;;;;;;15.35;10.38;;;3.20;99.90;;;1.64;100.00;101916.16;4976750;28;20398;-79
2024/01/30 04:32:49;;;;;;;12.68;11.18;;;3.20;99.90;;;1.51;100.00;101907.88;4988667;28;20082;-79
2024/01/30 04:35:16;;;;;;;13.55;10.95;;;3.20;96.40;;;1.65;100.00;101917.91;4972432;28;20054;-79
2024/01/30 04:37:43;;;;;;;13.38;10.05;;;3.70;99.90;;;1.27;100.00;101876.72;4989139;28;20057;-78
2024/01/30 04:40:10;;;;;;;13.55;10.48;;;3.10;60.10;;;1.10;100.00;101845.81;4972820;28;20468;-79
2024/01/30 04:42:40;;;;;;;12.65;11.32;;;3.10;99.90;;;1.63;100.00;101933.41;5002770;28;20046;-79
2024/01/30 04:45:08;;;;;;;13.68;10.57;;;3.10;16.60;;;1.23;100.00;101880.00;4983704;28;20133;-80
2024/01/30 04:47:35;;;;;;;14.63;10.55;;;3.10;7.20;;;0.17;100.00;101715.25;4972913;28;20141;-79
2024/01/30 04:50:04;;;;;;;14.18;11.05;;;3.00;1.00;;;1.04;100.00;101868.94;4968762;28;20082;-80
2024/01/30 04:52:32;;;;;;;13.50;10.52;;;4.10;1.00;;;1.37;100.00;101909.06;4972370;28;20046;-79
2024/01/30 04:54:59;;;;;;;14.05;10.25;;;3.10;1.00;;;1.36;100.00;101921.16;4968980;28;20442;-80
2024/01/30 04:57:26;;;;;;;16.60;11.05;;;3.00;1.00;;;1.12;100.00;101888.25;4988523;28;20061;-80
2024/01/30 04:59:53;;;;;;;12.60;10.57;;;2.80;17.50;;;1.22;100.00;101919.75;4978539;28;20050;-80
2024/01/30 05:02:20;;;;;;;14.02;11.07;;;2.80;33.50;;;0.52;100.00;101821.94;4986076;28;20129;-81
2024/01/30 05:04:47;;;;;;;12.23;10.30;;;2.80;10.50;;;0.84;100.00;101861.22;4971952;28;20042;-80
2024/01/30 05:07:15;;;;;;;13.77;10.88;;;2.70;13.60;;;0.93;100.00;101883.16;4972621;28;20056;-80
2024/01/30 05:09:42;;;;;;;18.15;12.77;;;3.20;99.90;;;0.13;100.00;101734.94;4987597;28;20108;-79
2024/01/30 05:12:09;;;;;;;15.85;11.82;;;2.50;99.90;;;0.99;100.00;101888.59;4972279;28;20097;-80
2024/01/30 05:14:36;;;;;;;14.70;11.15;;;4.40;99.90;;;1.05;100.00;101900.91;4971445;28;20050;-79
2024/01/30 05:17:03;;;;;;;15.70;11.02;;;2.80;99.90;;;1.25;100.00;101945.78;4988468;28;20408;-79
2024/01/30 05:19:30;;;;;;;15.38;12.48;;;2.80;99.90;;;1.15;100.00;101923.78;4984799;28;20055;-79
2024/01/30 05:21:57;;;;;;;20.33;15.82;;;2.80;99.90;;;1.20;100.00;101919.66;4966768;28;20050;-79
2024/01/30 05:24:24;;;;;;;20.40;17.10;;;2.80;99.90;;;1.21;100.00;101918.84;4973280;28;20162;-78
2024/01/30 05:26:54;;;;;;;19.27;15.17;;;2.80;99.90;;;1.12;100.00;101909.00;4975339;28;20141;-79
2024/01/30 05:29:21;;;;;;;18.33;13.40;;;2.90;99.90;;;1.06;100.00;101913.03;4974620;28;20298;-79
2024/01/30 05:31:48;;;;;;;18.17;13.68;;;2.80;99.90;;;1.20;100.00;101940.41;4973977;28;20385;-78
2024/01/30 05:34:15;;;;;;;16.67;13.93;;;3.40;99.90;;;1.37;100.00;101951.47;4957044;28;20046;-77
2024/01/30 05:36:42;;;;;;;15.00;12.60;;;2.90;99.90;;;1.12;100.00;101921.97;4998754;28;20590;-80
2024/01/30 05:39:10;;;;;;;16.63;12.52;;;4.30;99.90;;;1.26;100.00;101951.03;4982295;28;20051;-81
2024/01/30 05:41:37;;;;;;;17.42;12.52;;;3.70;99.90;;;-0.66;100.00;101672.19;4976531;28;20050;-80
2024/01/30 05:44:04;;;;;;;13.48;10.90;;;2.80;99.90;;;1.33;100.00;101969.44;4973852;28;20047;-79
2024/01/30 05:46:31;;;;;;;14.38;11.27;;;2.80;99.90;;;0.99;100.00;101909.31;4977025;28;20077;-81
2024/01/30 05:48:59;;;;;;;16.35;11.63;;;4.20;99.90;;;1.27;100.00;101947.63;5011633;28;20039;-81
2024/01/30 05:51:26;;;;;;;13.73;11.68;;;3.90;99.90;;;1.07;100.00;101935.56;4996217;28;20102;-82
2024/01/30 05:53:53;;;;;;;16.13;12.85;;;3.80;99.90;;;0.97;100.00;101918.75;4975269;28;20149;-81
2024/01/30 05:56:20;;;;;;;18.27;12.95;;;3.80;99.90;;;1.39;100.00;101957.59;4976433;28;20077;-80
2024/01/30 05:58:47;;;;;;;16.17;12.27;;;2.90;99.90;;;1.33;100.00;101941.81;4975919;28;20113;-82
2024/01/30 06:01:14;;;;;;;17.08;13.25;;;2.90;99.90;;;1.33;100.00;101934.03;4995129;28;20057;-80
2024/01/30 06:03:43;;;;;;;18.73;14.02;;;4.60;99.90;;;1.30;100.00;101927.81;4978572;28;20053;-81
2024/01/30 06:06:10;;;;;;;18.98;14.20;;;3.80;99.90;;;0.12;100.00;101738.34;4996145;28;20054;-80
2024/01/30 06:08:37;;;;;;;15.63;13.25;;;3.00;99.90;;;1.26;100.00;101945.84;4977164;28;20051;-78
2024/01/30 06:11:04;;;;;;;21.38;14.73;;;2.90;99.90;;;0.74;100.00;101853.03;4971435;28;20045;-79
2024/01/30 06:13:32;;;;;;;16.90;14.35;;;2.90;99.90;;;1.39;100.00;101951.50;4973680;28;20096;-79
2024/01/30 06:15:59;;;;;;;16.52;12.68;;;2.80;99.90;;;0.98;100.00;101910.16;4989212;28;20124;-79
2024/01/30 06:18:29;;;;;;;15.55;12.45;;;2.90;99.90;;;1.13;100.00;101925.44;4986490;28;20643;-77
2024/01/30 06:20:56;;;;;;;15.70;12.60;;;2.90;99.90;;;1.01;100.00;101905.06;4971582;28;20038;-77
2024/01/30 06:23:23;;;;;;;14.35;12.25;;;2.80;99.90;;;1.32;100.00;101976.31;5002913;28;20108;-77
2024/01/30 06:25:50;;;;;;;16.35;12.13;;;2.80;99.90;;;1.25;100.00;101974.31;4988172;28;20404;-77
2024/01/30 06:28:17;;;;;;;15.35;11.15;;;2.80;99.90;;;1.25;100.00;101969.13;4990512;28;20042;-77
2024/01/30 06:30:44;;;;;;;18.05;13.10;;;2.70;99.90;;;1.22;100.00;101961.22;4982399;28;20049;-77
2024/01/30 06:33:15;;;;;;;16.75;14.23;;;2.80;99.90;;;1.26;100.00;101960.53;4986872;28;20552;-77
2024/01/30 06:35:45;;;;;;;15.68;12.48;;;2.80;99.90;;;1.06;100.00;101934.69;4974713;28;20121;-77
2024/01/30 06:38:15;;;;;;;13.52;11.90;;;2.70;99.90;;;1.29;100.00;101962.38;4984014;28;20055;-77
2024/01/30 06:40:42;;;;;;;12.63;11.32;;;2.80;99.90;;;0.97;100.00;101931.69;4990022;28;20051;-78
2024/01/30 06:43:09;;;;;;;15.23;11.65;;;2.80;99.90;;;1.06;100.00;101944.16;4971500;28;20129;-78
2024/01/30 06:45:37;;;;;;;13.75;11.57;;;2.80;99.90;;;0.95;100.00;101916.09;4987693;28;20125;-77
2024/01/30 06:48:05;;;;;;;15.88;11.48;;;2.70;99.90;;;1.19;100.00;101956.78;4962740;28;20124;-77
2024/01/30 06:50:32;;;;;;;13.75;11.07;;;2.80;99.90;;;1.12;100.00;101934.06;5004046;28;20089;-77
2024/01/30 06:52:59;;;;;;;14.68;11.90;;;3.30;99.90;;;1.31;100.00;101960.72;4984809;28;20070;-77
2024/01/30 06:55:26;;;;;;;16.60;11.90;;;2.80;99.90;;;1.20;100.00;101952.50;4978262;28;20124;-77
2024/01/30 06:57:56;;;;;;;20.38;12.80;;;3.90;99.90;;;1.29;100.00;101962.38;4976057;28;20560;-76
2024/01/30 07:00:23;;;;;;;15.38;11.10;;;2.80;99.90;;;1.13;100.00;101928.91;4982190;28;20372;-77
2024/01/30 07:02:50;;;;;;;17.00;13.38;;;2.80;99.90;;;1.05;100.00;101919.97;4981987;28;20125;-76
2024/01/30 07:05:17;;;;;;;16.17;12.00;;;2.80;1.00;;;1.31;100.00;101971.09;4984145;28;20077;-76
2024/01/30 07:07:45;;;;;;;15.07;12.02;;;2.80;99.90;;;1.18;100.00;101938.59;4980845;28;20512;-77
2024/01/30 07:10:12;;;;;;;20.45;12.02;;;2.80;99.90;;;1.13;100.00;101931.50;4982382;28;20412;-77
2024/01/30 07:12:39;;;;;;;16.30;12.30;;;2.90;99.90;;;1.00;100.00;101918.88;4989832;28;20050;-77
2024/01/30 07:15:10;;;;;;;22.67;13.32;;;2.80;99.90;;;1.26;100.00;101968.28;4982143;28;20057;-77
2024/01/30 07:17:38;;;;;;;18.08;14.27;;;2.80;99.90;;;1.24;100.00;101962.16;4966373;28;20150;-77
2024/01/30 07:20:06;;;;;;;19.85;13.25;;;3.90;99.90;;;1.25;100.00;101953.56;4988902;28;20047;-77
2024/01/30 07:22:33;;;;;;;17.60;11.82;;;2.90;99.90;;;1.25;100.00;101956.16;4976304;28;20489;-77
2024/01/30 07:25:01;;;;;;;16.27;12.32;;;2.80;99.90;;;1.30;100.00;101965.00;4965332;28;20058;-77
2024/01/30 07:27:28;;;;;;;16.90;13.30;;;2.80;99.90;;;1.44;100.00;101988.91;4965838;28;20069;-77
2024/01/30 07:29:58;;;;;;;15.25;12.07;;;2.90;99.90;;;1.23;100.00;101965.59;4989096;28;20141;-77
2024/01/30 07:32:25;;;;;;;20.17;14.27;;;2.90;99.90;;;1.24;100.00;101949.19;4981496;28;20078;-77
2024/01/30 07:34:52;;;;;;;16.55;12.38;;;2.80;99.90;;;1.26;100.00;101961.41;4961079;28;20047;-77
2024/01/30 07:37:36;;;;;;;18.20;13.07;;;2.90;99.90;;;1.46;100.00;101986.34;4978610;28;20050;-77
2024/01/30 07:40:10;;;;;;;19.58;13.90;;;2.90;99.90;;;1.32;100.00;101960.75;4974763;28;20046;-77
2024/01/30 07:42:37;;;;;;;17.17;11.85;;;2.90;1.00;;;1.40;100.00;101959.34;4998608;28;20677;-77
2024/01/30 07:45:08;;;;;;;17.17;12.45;;;2.90;1.00;;;1.53;100.00;101976.28;4973841;28;20050;-77
2024/01/30 07:47:35;;;;;;;18.25;13.75;;;3.00;1.00;;;1.63;100.00;101980.13;4972773;28;20030;-77
2024/01/30 07:50:07;;;;;;;16.83;12.98;;;3.00;1.00;;;1.39;100.00;101934.25;4986282;28;20042;-77
2024/01/30 07:52:34;;;;;;;18.15;12.48;;;3.10;1.00;;;1.65;100.00;101973.31;4963814;28;20412;-77
2024/01/30 07:55:01;;;;;;;23.15;13.80;;;3.10;1.00;;;1.44;100.00;101937.03;4969710;28;20133;-78
2024/01/30 07:57:28;;;;;;;18.63;13.10;;;3.10;1.00;;;1.74;100.00;101983.16;4989646;28;20170;-77
2024/01/30 07:59:58;;;;;;;20.65;16.88;;;4.00;1.00;;;1.73;100.00;101976.19;4988417;28;20042;-77
2024/01/30 08:02:25;;;;;;;20.27;15.35;;;3.20;1.00;;;1.54;100.00;101940.84;4956510;28;20053;-77
2024/01/30 08:04:52;;;;;;;21.45;15.13;;;3.30;1.00;;;1.68;100.00;101964.72;4988082;28;20440;-77
2024/01/30 08:07:21;;;;;;;24.63;17.30;;;3.30;1.00;;;1.84;100.00;101985.25;4972428;28;20124;-77
2024/01/30 08:09:53;;;;;;;24.25;17.45;;;3.30;1.00;;;1.66;100.00;101941.34;4980784;28;20042;-79
2024/01/30 08:12:20;;;;;;;29.23;18.88;;;3.40;1.00;;;1.90;100.00;101979.41;4987895;28;20149;-77
2024/01/30 08:14:47;;;;;;;30.77;19.35;;;3.40;1.00;;;1.66;100.00;101930.97;4987913;28;20045;-77
2024/01/30 08:17:14;;;;;;;31.85;20.85;;;3.40;1.00;;;2.15;100.00;102002.81;5004036;28;20412;-77
2024/01/30 08:19:41;;;;;;;26.10;17.77;;;3.50;1.00;;;2.19;100.00;102004.72;5003558;28;20508;-77
2024/01/30 08:22:08;;;;;;;26.88;16.73;;;3.50;1.00;;;2.05;100.00;101978.22;4989407;28;20050;-77
2024/01/30 08:24:35;;;;;;;23.48;18.27;;;3.60;1.00;;;1.91;100.00;101949.16;4987974;28;20050;-78
2024/01/30 08:27:04;;;;;;;20.13;15.85;;;3.60;1.00;;;2.26;100.00;101994.59;4984228;28;20046;-77
2024/01/30 08:29:32;;;;;;;26.85;19.10;;;3.70;1.00;;;2.36;100.00;102000.13;4989077;28;20097;-77
2024/01/30 08:32:00;;;;;;;26.80;19.65;;;3.70;1.00;;;2.40;100.00;102001.97;4988810;28;20038;-77
2024/01/30 08:34:30;;;;;;;21.88;16.67;;;3.70;1.00;;;2.53;100.00;102000.72;4983276;28;20039;-77
2024/01/30 08:37:00;;;;;;;22.20;15.18;;;3.90;1.00;;;2.34;100.00;101970.59;4988926;28;20513;-77
2024/01/30 08:39:27;;;;;;;23.65;17.42;;;3.90;1.00;;;2.69;100.00;102013.44;4971428;28;20046;-77
2024/01/30 08:41:54;;;;;;;20.60;16.20;;;4.00;1.00;;;2.46;100.00;101963.25;4981823;28;20101;-76
2024/01/30 08:44:21;;;;;;;19.65;15.25;;;4.00;1.00;;;2.53;100.00;101966.94;4971191;28;20100;-76
2024/01/30 08:46:49;;;;;;;21.88;16.17;;;4.10;1.00;;;2.91;100.00;102011.56;4986354;28;20088;-76
2024/01/30 08:49:17;;;;;;;21.05;14.50;;;4.20;1.00;;;2.91;100.00;102006.38;4988336;28;20042;-76
2024/01/30 08:51:44;;;;;;;20.67;14.88;;;4.30;1.00;;;2.89;100.00;102002.84;4988593;28;20046;-77
2024/01/30 08:54:11;;;;;;;23.38;16.38;;;4.30;1.00;;;3.07;100.00;102018.19;4987455;28;20057;-76
2024/01/30 08:56:38;;;;;;;28.05;17.67;;;4.40;1.00;;;3.16;100.00;102012.41;4988704;28;20049;-77
2024/01/30 08:59:07;;;;;;;23.48;16.25;;;4.70;1.00;;;2.80;100.00;101950.50;4988967;28;20050;-77
2024/01/30 09:01:37;;;;;;;20.60;15.48;;;4.50;1.00;;;3.04;100.00;101981.66;4986942;28;20046;-77
2024/01/30 09:04:06;;;;;;;18.85;14.88;;;4.60;1.00;;;3.32;100.00;102012.91;4982791;28;20069;-77
2024/01/30 09:06:33;;;;;;;20.00;14.57;;;4.60;1.00;;;3.22;100.00;101983.09;4987174;28;20081;-77
2024/01/30 09:09:00;;;;;;;15.38;12.73;;;4.70;1.00;;;3.16;100.00;101981.19;4967698;28;20126;-77
2024/01/30 09:11:27;;;;;;;16.27;13.10;;;4.70;1.00;;;3.26;100.00;101970.22;4984251;28;20459;-77
2024/01/30 09:13:57;;;;;;;16.25;12.50;;;4.80;1.00;;;3.44;100.00;101986.38;4987462;28;20121;-77
2024/01/30 09:16:30;;;;;;;17.42;13.25;;;4.80;1.00;;;3.40;100.00;101986.28;4988541;28;20350;-77
2024/01/30 09:18:57;;;;;;;15.10;11.88;;;4.90;1.00;;;3.62;100.00;102007.78;4986516;28;20472;-77
2024/01/30 09:21:24;;;;;;;19.65;13.13;;;4.90;1.00;;;3.34;100.00;101961.78;4966926;28;20412;-77
2024/01/30 09:23:54;;;;;;;16.95;13.45;;;4.90;1.00;;;3.53;100.00;101974.53;4986935;28;20122;-77
2024/01/30 09:26:21;;;;;;;;;;;5.00;1.00;;;3.51;100.00;101964.91;4971942;28;20046;-77
2024/01/30 09:28:52;;;;;;;22.90;18.90;;;5.10;1.00;;;3.77;100.00;102022.09;4988327;28;19933;-77
2024/01/30 09:31:19;;;;;;;18.88;14.48;;;5.10;1.00;;;3.60;100.00;101962.59;4982306;28;20038;-77
2024/01/30 09:33:49;;;;;;;20.60;15.82;;;5.20;1.00;;;3.67;100.00;101963.66;4978935;28;20038;-77
2024/01/30 09:36:18;;;;;;;16.05;13.93;;;5.30;1.00;;;4.03;100.00;102007.25;4987784;28;20066;-77
2024/01/30 09:38:45;;;;;;;20.92;16.25;;;5.30;1.00;;;4.02;100.00;102002.03;4988472;28;20038;-78
2024/01/30 09:41:12;;;;;;;23.98;17.05;;;5.40;1.00;;;4.02;100.00;101984.66;4982418;28;20046;-76
2024/01/30 09:43:40;;;;;;;23.75;18.45;;;5.50;1.00;;;4.18;100.00;102001.63;4970479;28;20047;-77
2024/01/30 09:46:13;;;;;;;28.75;20.55;;;5.50;1.00;;;4.37;100.00;102020.38;4987468;28;20046;-77
2024/01/30 09:48:42;;;;;;;22.52;17.20;;;5.60;1.00;;;4.46;100.00;102022.38;4987976;28;20440;-78
2024/01/30 09:51:10;;;;;;;22.83;18.27;;;5.70;1.00;;;4.25;100.00;101974.88;4985801;28;20050;-77
2024/01/30 09:53:39;;;;;;;20.73;15.85;;;5.80;1.00;;;4.38;100.00;101988.25;4986323;28;20668;-77
2024/01/30 09:56:06;;;;;;;18.92;14.48;;;5.80;1.00;;;4.61;100.00;102019.31;4983855;28;20043;-76
2024/01/30 09:58:33;;;;;;;19.00;14.50;;;5.90;1.00;;;4.58;100.00;101999.25;4986092;28;20410;-76
2024/01/30 10:01:00;;;;;;;17.30;13.23;;;6.00;1.00;;;4.68;100.00;102010.81;4987172;28;20034;-77
2024/01/30 10:03:27;;;;;;;17.08;14.15;;;6.10;1.00;;;4.83;100.00;102034.69;4989599;28;20105;-78
2024/01/30 10:05:58;;;;;;;21.05;14.48;;;6.10;1.00;;;4.58;100.00;101990.53;4991910;28;20408;-78
2024/01/30 10:08:26;;;;;;;22.73;16.42;;;6.20;1.00;;;4.76;100.00;102001.47;4976000;28;20479;-78
2024/01/30 10:10:57;;;;;;;18.83;15.05;;;6.90;1.00;;;4.35;100.00;101923.03;4973496;28;20059;-78
2024/01/30 10:13:25;;;;;;;18.65;15.60;;;6.30;1.00;;;4.77;100.00;101986.69;4987338;28;20064;-77